Résultats

Sainte Propice Run (SPR) 16km700. Édition 2016.

16.7 Km
05/06/2016 à 08:45:00 - VELAUX (13)
226 arrivant(e)s.





Place▲ Temps Dossard Nom Prenom Categ #Categ Sexe #Sexe Club Vit Moy Diplôme Partager
1 01:03:14 586 LUXEMBOURG NICOLAS SEM 1 M 1 TEAM ENDURANCE SHOP 13 15.85
2 01:07:08 623 REDO FRANCK M1M 1 M 2 RUN AND FREEDOM 14.93
3 01:07:32 694 ANCELIN THOMAS SEM 2 M 3 14.84
4 01:08:07 513 BEKRAR ABDALLAH M1M 2 M 4 BERRE SPORT ATHLETISME 14.71
5 01:09:50 720 BRIOT BRUNO SEM 3 M 5 14.35
6 01:10:06 519 BESSETTES LAURENT SEM 4 M 6 ROGNAC ATHLETIC CLUB 14.29
7 01:12:34 666 VEDACHELLAM PARSOORAMEN M1M 3 M 7 13.81
8 01:12:59 565 HALLOUIN DAVID M1M 4 M 8 FOC/ENDURANCE SHOP MARTIGUES 13.73
9 01:13:22 730 CAPUCHO JOAQUIM M2M 1 M 9 13.66
10 01:13:23 695 GINTER SEBASTIEN M1M 5 M 10 13.65
11 01:13:23 546 DROMER NICOLAS M1M 6 M 11 CE ARKEMA 13.65
12 01:13:35 644 STEENBERGEN PAUL SEM 5 M 12 13.62
13 01:14:07 647 VATTEONI MICHEL M2M 2 M 13 FOS OLYMPIQUE CLUB 13.52
14 01:14:15 673 VERMEESCH NICOLAS SEM 6 M 14 FOULEE SALONAISE 13.49
15 01:16:55 660 NIN GILLES M1M 7 M 15 13.03
16 01:17:07 633 SAF KARIM M1M 8 M 16 12.99
17 01:17:18 612 OBERTO GILLES M1M 9 M 17 SPEEDY CLUB DE PROVENCE 12.96
18 01:17:39 680 GROSFILS JEAN-MARC M2M 3 M 18 12.90
19 01:17:51 542 DI-FALCO CHRISTIAN M2M 4 M 19 ROGNAC ATHLETIC CLUB 12.87
20 01:18:53 732 POUCHOU LAURENT SEM 7 M 20 12.70
21 01:18:54 605 MOURET LAURENT SEM 8 M 21 12.70
22 01:20:04 677 LEROY JOFFREY M1M 10 M 22 12.51
23 01:20:24 631 ROUMIEU NICOLAS SEM 9 M 23 TEAM TRAIL SALONAIS 12.46
24 01:21:06 711 BOUVARD CHRISTOPHE SEM 10 M 24 12.36
25 01:21:18 637 SCHIANO-DI-COSCIA JEROME M1M 11 M 25 KM 42.195 MARSEILLE 12.32
26 01:21:41 630 ROTH ALEXANDRE SEM 11 M 26 SEMELLES USEES ROGNAC 12.27
27 01:22:15 530 CAVALLI PATRICK M2M 5 M 27 BERRE SPORT ATHLETISME 12.18
28 01:22:22 550 ESHIGIAN MICHEL M3M 1 M 28 12.17
29 01:22:23 690 BIEHLER AXEL SEM 12 M 29 12.16
30 01:22:25 642 SORDELLO JEROME SEM 13 M 30 LA BIBLE DU RUNNING 12.16
31 01:22:51 701 GEVIA JEAN-MICHEL M2M 6 M 31 12.09
32 01:23:04 683 BERTHET JACQUES M3M 2 M 32 12.06
33 01:23:11 615 PELLOTTIERO GERAUD SEM 14 M 33 12.05
34 01:23:22 650 VILLAESCUSA FRANCOIS SEM 15 M 34 COURIR A SAUSSET 12.02
35 01:23:31 681 COMETTO JEAN-MARIE M3M 3 M 35 12.00
36 01:23:41 602 MONIN LILIAN JUM 1 M 36 11.97
37 01:23:45 718 VITIELLO SYLVAIN SEM 16 M 37 11.96
38 01:23:45 563 GUSTAVIN JEAN-PIERRE M1M 12 M 38 SAINT CHAM ATHLETIC CLUB 11.96
39 01:24:12 722 SINNAMA PIERRE M1M 13 M 39 11.90
40 01:25:04 684 POULIGUEN LAURENT SEM 17 M 40 11.78
41 01:25:20 577 LARDET CHRISTOPHE M1M 14 M 41 11.74
42 01:25:44 724 CEARD CLAUDE M1M 15 M 42 11.69
43 01:25:45 716 CROUZAT PATRICK M1M 16 M 43 SCO SAINTE MARGUERITE 11.69
44 01:25:47 613 PATANE JOCELYN SEM 18 M 44 AS ASCAIN ELGARREKIN 11.68
45 01:25:59 656 YEUNG-WAI-TOK JONATHAN SEM 19 M 45 11.65
46 01:26:02 545 DONADIO THIERRY SEM 20 M 46 LES FARFADETS 11.65
47 01:26:40 594 MAZZIOTTA JOEL SEM 21 M 47 GIGNAC 11.56
48 01:26:43 682 ARNAUD GERARD M3M 4 M 48 11.55
49 01:26:52 622 RAMIREZ ALFREDO M1M 17 M 49 11.53
50 01:27:00 698 CHAUSSET DENIS SEM 22 M 50 11.52
51 01:27:02 603 MOREAU FREDERIC M1M 18 M 51 BERRE SPORT ATHLETISME 11.51
52 01:27:03 628 ROCHETTE JEREMY M1M 19 M 52 SEMELLES USEES ROGNAC 11.51
53 01:27:18 579 LAURENT JULIEN SEM 23 M 53 ROGNAC ATHLETIC CLUB 11.48
54 01:27:26 709 ARNAUD ALEXANDRE SEM 24 M 54 VENTABREN JOGGING AVENTURE 11.46
55 01:27:34 731 BRANDSMA ANGELIQUE M1F 1 F 1 COOL 11.44
56 01:27:44 627 RICHOUX LOIC SEM 25 M 55 11.42
57 01:28:03 555 FONTAINE SANDRA M1F 2 F 2 KM 42.195 MARSEILLE 11.38
58 01:28:05 570 IACOPONI PROSPER M3M 5 M 56 LE LIEVRE ET LA TORTUE 11.38
59 01:28:21 663 VIDAL LUC M2M 7 M 57 11.34
60 01:28:22 523 BONNEFOY PIERRE M2M 8 M 58 TEAM 12 13 11.34
61 01:28:42 548 DUPRESSOIR NICOLAS SEM 26 M 59 11.30
62 01:28:42 515 BERGER GILBERT M1M 20 M 60 AC ST REMY 11.30
63 01:28:45 729 CHAVANE LOUIS SEM 27 M 61 11.29
64 01:28:51 727 GUITTON GUILLAUME SEM 28 M 62 11.28
65 01:29:10 598 MOCKBEL SAMIR M1M 21 M 63 COURIR A SAUSSET 11.24
66 01:29:13 670 ALLEMAND OLIVIER SEM 29 M 64 11.23
67 01:29:17 651 VILLY JEAN-CHARLES M2M 9 M 65 CSPCG 13 11.22
68 01:29:43 707 DEL-PINO JEAN-FRANCOIS M2M 10 M 66 11.17
69 01:29:57 699 NICHTERWITZ SEBASTIEN SEM 30 M 67 POMPIER ISTRES 11.14
70 01:29:59 532 CHAVE JEANINE M2F 1 F 3 11.14
71 01:30:08 652 VILLY ROSE-MARIE M2F 2 F 4 CSPCG 13 11.12
72 01:30:20 648 VIGARA MARIANO M3M 6 M 68 AC LANCON 11.09
73 01:30:37 697 MAZE BRUNO M1M 22 M 69 11.06
74 01:30:50 611 NICOLAS GUILLAUME M1M 23 M 70 OMCA ST-MITRE-LES-REMPARTS 11.03
75 01:30:54 556 FORGNON THOMAS SEM 31 M 71 11.02
76 01:31:16 533 CLOUTIER ROGER M2M 11 M 72 10.98
77 01:31:24 551 ESHIGIAN NICOLAS SEM 32 M 73 10.96
78 01:31:26 582 LOIC PEIGNIER SEM 33 M 74 AIX ATHLE PROVENCE 10.96
79 01:31:29 665 BENEDETTO GUY M2M 12 M 75 KM 42.195 MARSEILLE 10.95
80 01:31:33 557 GAKOVIC STEPHANE M2M 13 M 76 SPEEDY CLUB DE PROVENCE 10.94
81 01:31:58 571 ISSALYS CAROLE M2F 3 F 5 DRAGUIGNAN UC 10.90
82 01:31:59 536 DAUVERGNE OLIVIER M1M 24 M 77 BREF JE FAIS DU TRAIL 10.89
83 01:32:07 679 YOGOURTDJIAN ALAIN M1M 25 M 78 SMAC 10.88
84 01:32:12 547 DUPLAN MATTHIEU SEM 34 M 79 DAVIDSON PACA 10.87
85 01:32:32 537 DELAVAUD BERNARD M2M 14 M 80 TEAM 12 13 10.83
86 01:32:39 686 BIAVA CHRISTOPHE SEM 35 M 81 10.81
87 01:32:43 685 N:Anonyme 685 P:Anonyme 685 SEM 36 M 82 10.81
88 01:32:46 626 RENAUD PATRICK M1M 26 M 83 TEAM LEVAD 10.80
89 01:33:00 662 DUPIRE PHILIPPE M2M 15 M 84 10.77
90 01:33:03 534 CONOTTE GEORGES M3M 7 M 85 10.77
91 01:33:05 621 POUZENC BRUNO M2M 16 M 86 10.76
92 01:33:08 712 BONNET DOMINIC M2M 17 M 87 10.76
93 01:33:14 618 PINEAU CECILE SEF 1 F 6 10.75
94 01:33:21 516 BERNATETS FRANCOIS M1M 27 M 88 10.73
95 01:33:24 723 JACQUES MAXIME SEM 37 M 89 TEAM ENDURANCE PROVENCE 10.73
96 01:33:27 641 SMETS GUILLAUME SEM 38 M 90 10.72
97 01:33:30 655 WILLIAMS JOHN-RICHARD M1M 28 M 91 COURIR A VELAUX 10.72
98 01:33:34 607 MUSEUR PIERRE JUM 2 M 92 10.71
99 01:33:42 708 ARMAING THOMAS JUM 3 M 93 10.69
100 01:34:00 508 AVRAN ILENA JUF 1 F 7 MARIGNANE 10.66